Time;durP1;ratioP1;P1;durP2;ratioP2;P2;SDS_P1;SDS_P2;PMS_P1;PMS_P2;Temp;Humidity;BMP_temperature;BMP_pressure;BME280_temperature;BME280_humidity;BME280_pressure;Samples;Min_cycle;Max_cycle;Signal;HPM_P1;HPM_P2
2021/12/15 00:00:42;;;;;;;0.75;0.55;;;;;;;-145.06;0.00;60892.56;4727119;29;20036;-88
2021/12/15 00:03:22;;;;;;;0.90;0.60;;;;;;;-145.06;0.00;60892.56;4708099;29;20060;-87
2021/12/15 00:06:03;;;;;;;0.47;0.47;;;;;;;-145.06;0.00;60892.56;4715310;29;20080;-88
2021/12/15 00:08:44;;;;;;;0.90;0.57;;;;;;;-145.06;0.00;60892.56;4731995;29;20498;-88
2021/12/15 00:11:35;;;;;;;0.43;0.43;;;;;;;-145.06;0.00;60892.56;4733952;29;20041;-87
2021/12/15 00:14:20;;;;;;;0.60;0.50;;;;;;;-145.06;0.00;60892.56;4727092;29;20040;-89
2021/12/15 00:17:01;;;;;;;0.50;0.40;;;;;;;-145.06;0.00;60892.56;4720065;29;20032;-88
2021/12/15 00:19:40;;;;;;;0.40;0.40;;;;;;;-145.06;0.00;60892.56;4712959;29;20503;-88
2021/12/15 00:22:22;;;;;;;0.70;0.55;;;;;;;-145.06;0.00;60892.56;4726280;29;20036;-88
2021/12/15 00:25:04;;;;;;;0.47;0.47;;;;;;;-145.06;0.00;60892.56;4729632;29;20041;-87
2021/12/15 00:27:49;;;;;;;0.70;0.60;;;;;;;-145.06;0.00;60892.56;4719412;29;20032;-89
2021/12/15 00:30:28;;;;;;;1.70;0.50;;;;;;;-145.06;0.00;60892.56;4727841;29;20616;-88
2021/12/15 00:33:08;;;;;;;0.82;0.50;;;;;;;-145.06;0.00;60892.56;4730080;29;20056;-88
2021/12/15 00:35:47;;;;;;;;;;;;;;;-145.06;0.00;60892.56;4726396;29;20035;-88
2021/12/15 00:38:29;;;;;;;0.30;0.30;;;;;;;-145.06;0.00;60892.56;4720178;29;19911;-87
2021/12/15 00:41:09;;;;;;;0.30;0.30;;;;;;;-145.06;0.00;60892.56;4730197;29;20581;-87
2021/12/15 00:43:48;;;;;;;0.40;0.40;;;;;;;-145.06;0.00;60892.56;4716129;29;20036;-87
2021/12/15 00:46:27;;;;;;;0.57;0.50;;;;;;;-145.06;0.00;60892.56;4713330;29;20032;-88
2021/12/15 00:49:08;;;;;;;0.50;0.50;;;;;;;-145.06;0.00;60892.56;4717705;29;20763;-87
2021/12/15 00:51:47;;;;;;;0.35;0.35;;;;;;;-145.06;0.00;60892.56;4730041;29;20079;-88
2021/12/15 00:54:26;;;;;;;0.43;0.43;;;;;;;-145.06;0.00;60892.56;4744538;29;20043;-88
2021/12/15 00:57:05;;;;;;;0.40;0.40;;;;;;;-145.06;0.00;60892.56;4721660;29;20068;-87
2021/12/15 00:59:47;;;;;;;0.50;0.50;;;;;;;-145.06;0.00;60892.56;4717522;29;20281;-88
2021/12/15 01:02:27;;;;;;;0.30;0.30;;;;;;;-145.06;0.00;60892.56;4739586;29;20036;-88
2021/12/15 01:05:07;;;;;;;0.30;0.30;;;;;;;-145.06;0.00;60892.56;4728514;29;20040;-88
2021/12/15 01:07:47;;;;;;;0.50;0.50;;;;;;;-145.06;0.00;60892.56;4720655;29;20115;-88
2021/12/15 01:10:38;;;;;;;;;;;;;;;-145.06;0.00;60892.56;4714135;29;20024;-87
2021/12/15 01:22:17;;;;;;;0.38;0.38;;;;;;;-145.06;0.00;60892.56;4733070;29;19911;-88
2021/12/15 01:25:31;;;;;;;0.65;0.28;;;;;;;-145.06;0.00;60892.56;4730381;29;20052;-87
2021/12/15 01:28:10;;;;;;;0.30;0.30;;;;;;;-145.06;0.00;60892.56;4714171;29;20051;-87
2021/12/15 01:30:50;;;;;;;0.40;0.40;;;;;;;15.88;0.00;60892.56;4698879;29;20025;-87
2021/12/15 01:33:29;;;;;;;;;;;;;;;-145.06;0.00;60892.56;4720591;29;20039;-87
2021/12/15 01:36:10;;;;;;;0.30;0.30;;;;;;;-145.06;0.00;60892.56;4729913;29;19923;-88
2021/12/15 01:38:49;;;;;;;0.38;0.30;;;;;;;-145.06;0.00;60892.56;4727488;29;20032;-87
2021/12/15 01:41:31;;;;;;;0.43;0.40;;;;;;;-145.06;0.00;60892.56;4726639;29;20036;-87
2021/12/15 01:46:59;;;;;;;0.30;0.30;;;;;;;15.88;0.00;60892.56;4743938;29;20020;-88
2021/12/15 01:49:44;;;;;;;0.40;0.30;;;;;;;-145.06;0.00;60892.56;4715208;29;20064;-87
2021/12/15 01:52:29;;;;;;;0.25;0.25;;;;;;;-145.06;0.00;60892.56;4730479;29;20045;-87
2021/12/15 01:55:13;;;;;;;0.63;0.40;;;;;;;-145.06;0.00;60892.56;4708935;29;20045;-89
2021/12/15 01:57:53;;;;;;;0.30;0.30;;;;;;;-145.06;0.00;60892.56;4738854;29;20490;-88
2021/12/15 02:01:00;;;;;;;0.20;0.20;;;;;;;-145.06;0.00;60892.56;4720114;29;20471;-88
2021/12/15 02:03:40;;;;;;;0.30;0.30;;;;;;;-145.06;0.00;60892.56;4718209;29;20494;-88
2021/12/15 02:06:19;;;;;;;0.30;0.30;;;;;;;-145.06;0.00;60892.56;4717246;29;20107;-88
2021/12/15 02:08:59;;;;;;;0.50;0.50;;;;;;;-145.06;0.00;60892.56;4725330;29;20040;-88
2021/12/15 02:11:38;;;;;;;0.80;0.57;;;;;;;-145.06;0.00;60892.56;4716447;29;20028;-88
2021/12/15 02:14:17;;;;;;;0.30;0.30;;;;;;;-145.06;0.00;60892.56;4720886;29;20036;-88
2021/12/15 02:16:57;;;;;;;0.30;0.30;;;;;;;-145.06;0.00;60892.56;4726204;29;20368;-88
2021/12/15 02:19:39;;;;;;;0.30;0.30;;;;;;;-145.06;0.00;60892.56;4699909;29;20331;-88
2021/12/15 02:22:19;;;;;;;0.30;0.30;;;;;;;-145.06;0.00;60892.56;4703596;29;20068;-87
2021/12/15 02:24:58;;;;;;;0.30;0.30;;;;;;;-145.06;0.00;60892.56;4719111;29;20044;-87
2021/12/15 02:27:38;;;;;;;0.35;0.30;;;;;;;-145.06;0.00;60892.56;4719252;29;20037;-87
2021/12/15 02:39:03;;;;;;;0.38;0.38;;;;;;;-145.06;0.00;60892.56;4735866;29;20044;-88
2021/12/15 02:41:46;;;;;;;0.45;0.40;;;;;;;-145.06;0.00;60892.56;4724354;29;20035;-88
2021/12/15 02:44:26;;;;;;;0.40;0.30;;;;;;;-145.06;0.00;60892.56;4721819;29;20800;-88
2021/12/15 02:47:06;;;;;;;0.43;0.30;;;;;;;-145.06;0.00;60892.56;4724979;29;20032;-88
2021/12/15 02:49:46;;;;;;;0.40;0.40;;;;;;;-145.06;0.00;60892.56;4740212;29;20115;-89
2021/12/15 02:52:26;;;;;;;0.40;0.40;;;;;;;-145.06;0.00;60892.56;4732054;29;20040;-88
2021/12/15 02:55:07;;;;;;;0.77;0.30;;;;;;;-145.06;0.00;60892.56;4735700;29;20032;-88
2021/12/15 02:57:48;;;;;;;0.43;0.30;;;;;;;-145.06;0.00;60892.56;4713998;29;20033;-87
2021/12/15 03:00:37;;;;;;;0.50;0.40;;;;;;;-145.06;0.00;60892.56;4726383;29;20044;-88
2021/12/15 03:06:29;;;;;;;0.45;0.30;;;;;;;-145.06;0.00;60892.56;4733742;29;20028;-88
2021/12/15 03:18:19;;;;;;;0.73;0.38;;;;;;;-145.06;0.00;60892.56;4738780;29;20517;-88
2021/12/15 03:21:05;;;;;;;0.50;0.50;;;;;;;-145.06;0.00;60892.56;4718309;29;20036;-88
2021/12/15 03:23:51;;;;;;;0.30;0.30;;;;;;;-145.06;0.00;60892.56;4722548;29;20067;-88
2021/12/15 03:26:50;;;;;;;0.47;0.40;;;;;;;-145.06;0.00;60892.56;4717013;29;20024;-88
2021/12/15 03:35:47;;;;;;;0.57;0.50;;;;;;;-145.06;0.00;60892.56;4735803;29;20419;-88
2021/12/15 03:38:28;;;;;;;0.60;0.50;;;;;;;-145.06;0.00;60892.56;4713260;29;20123;-88
2021/12/15 03:41:10;;;;;;;0.60;0.50;;;;;;;-145.06;0.00;60892.56;4719250;29;20036;-89
2021/12/15 03:43:49;;;;;;;1.00;0.57;;;;;;;-145.06;0.00;60892.56;4720770;29;20036;-87
2021/12/15 03:46:29;;;;;;;0.53;0.53;;;;;;;-145.06;0.00;60892.56;4724532;29;20036;-88
2021/12/15 03:49:08;;;;;;;0.50;0.50;;;;;;;-145.06;0.00;60892.56;4734461;29;20037;-88
2021/12/15 03:51:47;;;;;;;0.60;0.50;;;;;;;-145.06;0.00;60892.56;4727903;29;20612;-87
2021/12/15 03:54:29;;;;;;;0.55;0.47;;;;;;;-145.06;0.00;60892.56;4713144;29;20036;-88
2021/12/15 03:57:12;;;;;;;0.40;0.40;;;;;;;-145.06;0.00;60892.56;4725036;29;20119;-89
2021/12/15 03:59:53;;;;;;;0.55;0.43;;;;;;;-145.06;0.00;60892.56;4726939;29;20028;-88
2021/12/15 04:02:33;;;;;;;0.50;0.50;;;;;;;-145.06;0.00;60892.56;4730388;29;20044;-88
2021/12/15 04:05:17;;;;;;;0.40;0.40;;;;;;;-145.06;0.00;60892.56;4713275;29;20060;-87
2021/12/15 04:08:05;;;;;;;0.80;0.70;;;;;;;-145.06;0.00;60892.56;4713176;29;20032;-88
2021/12/15 04:10:45;;;;;;;0.80;0.65;;;;;;;-145.06;0.00;60892.56;4708409;29;20028;-88
2021/12/15 04:13:27;;;;;;;0.70;0.65;;;;;;;10.26;0.00;60892.56;4713386;29;20032;-88
2021/12/15 04:16:14;;;;;;;0.55;0.55;;;;;;;10.23;0.00;60892.56;4723712;29;20067;-89
2021/12/15 04:18:54;;;;;;;0.65;0.55;;;;;;;-145.06;0.00;60892.56;4736558;29;20031;-88
2021/12/15 04:21:34;;;;;;;0.50;0.43;;;;;;;-145.06;0.00;60892.56;4717686;29;20036;-88
2021/12/15 04:24:15;;;;;;;0.63;0.50;;;;;;;-145.06;0.00;60892.56;4721533;29;20025;-88
2021/12/15 04:26:57;;;;;;;0.55;0.50;;;;;;;-145.06;0.00;60892.56;4724027;29;20479;-87
2021/12/15 04:29:40;;;;;;;0.40;0.40;;;;;;;-145.06;0.00;60892.56;4719494;29;20044;-89
2021/12/15 04:32:47;;;;;;;0.20;0.20;;;;;;;-145.06;0.00;60892.56;4725357;29;20032;-88
2021/12/15 04:35:26;;;;;;;1.00;0.40;;;;;;;-145.06;0.00;60892.56;4725550;29;20032;-89
2021/12/15 04:38:06;;;;;;;0.40;0.40;;;;;;;10.24;0.00;60892.56;4719165;29;20056;-89
2021/12/15 04:40:45;;;;;;;0.65;0.43;;;;;;;-145.06;0.00;60892.56;4707487;29;20044;-88
2021/12/15 04:43:29;;;;;;;0.30;0.30;;;;;;;-145.06;0.00;60892.56;4698563;29;20037;-88
2021/12/15 04:46:12;;;;;;;0.28;0.28;;;;;;;-145.06;0.00;60892.56;4717836;29;20083;-89
2021/12/15 04:48:52;;;;;;;0.38;0.20;;;;;;;-145.06;0.00;60892.56;4724237;29;20448;-88
2021/12/15 04:51:31;;;;;;;0.40;0.40;;;;;;;-145.06;0.00;60892.56;4719112;29;20032;-86
2021/12/15 04:54:10;;;;;;;0.52;0.40;;;;;;;-145.06;0.00;60892.56;4711957;29;20476;-88
2021/12/15 04:56:49;;;;;;;1.30;0.50;;;;;;;-145.06;0.00;60892.56;4726569;29;20068;-89
2021/12/15 04:59:29;;;;;;;0.30;0.30;;;;;;;-145.06;0.00;60892.56;4718783;29;20438;-88
2021/12/15 05:02:09;;;;;;;0.82;0.40;;;;;;;-145.06;0.00;60892.56;4736469;29;20040;-88
2021/12/15 05:04:48;;;;;;;;;;;;;;;-145.06;0.00;60892.56;4726221;29;20043;-88
2021/12/15 05:07:28;;;;;;;;;;;;;;;-145.06;0.00;60892.56;4748579;29;19915;-88
2021/12/15 05:10:08;;;;;;;0.30;0.30;;;;;;;-145.06;0.00;60892.56;4729879;29;19915;-88
2021/12/15 05:12:48;;;;;;;0.40;0.40;;;;;;;-145.06;0.00;60892.56;4712733;29;20280;-88
2021/12/15 05:15:28;;;;;;;0.30;0.30;;;;;;;187.52;0.00;60892.56;4716356;29;20107;-88
2021/12/15 05:18:10;;;;;;;0.40;0.38;;;;;;;-145.06;0.00;60892.56;4722508;29;20542;-88
2021/12/15 05:20:52;;;;;;;0.43;0.40;;;;;;;10.14;0.00;60892.56;4721253;29;20375;-87
2021/12/15 05:23:32;;;;;;;0.22;0.22;;;;;;;10.14;0.00;60892.56;4705048;29;20147;-87
2021/12/15 05:26:12;;;;;;;0.40;0.40;;;;;;;-145.06;0.00;60892.56;4716088;29;20036;-87
2021/12/15 05:28:51;;;;;;;0.45;0.38;;;;;;;-145.06;0.00;60892.56;4737001;29;20036;-87
2021/12/15 05:31:36;;;;;;;0.40;0.30;;;;;;;-145.06;0.00;60892.56;4721750;29;20033;-89
2021/12/15 05:34:15;;;;;;;0.40;0.40;;;;;;;-145.06;0.00;60892.56;4722057;29;20498;-89
2021/12/15 05:36:54;;;;;;;0.60;0.32;;;;;;;10.12;0.00;60892.56;4718879;29;20028;-88
2021/12/15 05:39:35;;;;;;;0.35;0.35;;;;;;;-145.06;0.00;60892.56;4712889;29;20067;-87
2021/12/15 05:42:17;;;;;;;0.30;0.30;;;;;;;-145.06;0.00;60892.56;4711528;29;20066;-87
2021/12/15 05:44:56;;;;;;;0.50;0.43;;;;;;;-145.06;0.00;60892.56;4714550;29;20036;-88
2021/12/15 05:47:36;;;;;;;0.52;0.50;;;;;;;-145.06;0.00;60892.56;4725812;29;20028;-88
2021/12/15 05:50:19;;;;;;;0.30;0.30;;;;;;;-145.06;0.00;60892.56;4724383;29;20372;-88
2021/12/15 05:53:00;;;;;;;0.30;0.30;;;;;;;10.17;0.00;60892.56;4712087;29;20384;-87
2021/12/15 05:55:40;;;;;;;0.47;0.47;;;;;;;-145.06;0.00;60892.56;4710625;29;20506;-87
2021/12/15 05:58:20;;;;;;;0.30;0.30;;;;;;;-145.06;0.00;60892.56;4709986;29;20487;-89
2021/12/15 06:00:59;;;;;;;0.52;0.50;;;;;;;10.17;0.00;60892.56;4711526;29;20044;-87
2021/12/15 06:03:38;;;;;;;0.30;0.30;;;;;;;-145.06;0.00;60892.56;4713314;29;20048;-88
2021/12/15 06:06:17;;;;;;;0.40;0.40;;;;;;;-145.06;0.00;60892.56;4722204;29;20032;-88
2021/12/15 06:08:57;;;;;;;0.40;0.40;;;;;;;10.20;0.00;60892.56;4714864;29;20049;-87
2021/12/15 06:11:40;;;;;;;0.70;0.50;;;;;;;-145.06;0.00;60892.56;4720455;29;20071;-88
2021/12/15 06:14:24;;;;;;;0.30;0.30;;;;;;;-145.06;0.00;60892.56;4713285;29;20044;-88
2021/12/15 06:17:07;;;;;;;0.40;0.40;;;;;;;-145.06;0.00;60892.56;4712826;29;21410;-89
2021/12/15 06:19:46;;;;;;;0.32;0.32;;;;;;;-145.06;0.00;60892.56;4718178;29;20037;-88
2021/12/15 06:22:27;;;;;;;0.53;0.50;;;;;;;-145.06;0.00;60892.56;4716289;29;20479;-88
2021/12/15 06:25:07;;;;;;;0.40;0.40;;;;;;;-145.06;0.00;60892.56;4718595;29;20276;-89
2021/12/15 06:27:46;;;;;;;0.60;0.60;;;;;;;-145.06;0.00;60892.56;4712332;29;20024;-87
2021/12/15 06:30:34;;;;;;;0.60;0.43;;;;;;;-145.06;0.00;60892.56;4723067;29;20036;-88
2021/12/15 06:33:14;;;;;;;0.70;0.50;;;;;;;10.22;0.00;60892.56;4714542;29;20032;-87
2021/12/15 06:35:54;;;;;;;;;;;;;;;-145.06;0.00;60892.56;4715303;29;20051;-88
2021/12/15 06:38:36;;;;;;;0.68;0.40;;;;;;;-145.06;0.00;60892.56;4725225;29;19919;-88
2021/12/15 06:41:16;;;;;;;0.38;0.38;;;;;;;-145.06;0.00;60892.56;4715168;29;20032;-88
2021/12/15 06:43:58;;;;;;;0.52;0.40;;;;;;;-145.06;0.00;60892.56;4712102;29;20028;-87
2021/12/15 06:58:31;;;;;;;0.40;0.40;;;;;;;-145.06;0.00;60892.56;4736057;29;20041;-87
2021/12/15 07:01:10;;;;;;;0.70;0.43;;;;;;;-145.06;0.00;60892.56;4728564;29;20028;-87
2021/12/15 07:03:50;;;;;;;0.60;0.40;;;;;;;-145.06;0.00;60892.56;4732954;29;20134;-87
2021/12/15 07:06:29;;;;;;;;;;;;;;;-145.06;0.00;60892.56;4726673;29;20040;-87
2021/12/15 07:09:20;;;;;;;0.70;0.50;;;;;;;10.11;0.00;60892.56;4725916;29;20005;-86
2021/12/15 07:12:00;;;;;;;0.30;0.30;;;;;;;-145.06;0.00;60892.56;4723686;29;20032;-86
2021/12/15 07:14:39;;;;;;;;;;;;;;;-145.06;0.00;60892.56;4708730;29;20059;-86
2021/12/15 07:17:22;;;;;;;0.38;0.30;;;;;;;-145.06;0.00;60892.56;4731025;29;19915;-87
2021/12/15 07:22:44;;;;;;;0.20;0.20;;;;;;;10.13;0.00;60892.56;4710992;29;20029;-88
2021/12/15 07:25:23;;;;;;;0.20;0.20;;;;;;;-145.06;0.00;60892.56;4735143;29;20901;-87
2021/12/15 07:28:06;;;;;;;;;;;;;;;187.52;0.00;60892.56;4717896;29;20024;-87
2021/12/15 07:30:46;;;;;;;0.28;0.20;;;;;;;-145.06;0.00;60892.56;4726866;29;19911;-86
2021/12/15 07:33:25;;;;;;;0.40;0.40;;;;;;;-145.06;0.00;60892.56;4739702;29;20368;-86
2021/12/15 07:36:05;;;;;;;0.50;0.40;;;;;;;10.13;0.00;60892.56;4721695;29;20368;-87
2021/12/15 07:38:47;;;;;;;0.30;0.30;;;;;;;10.14;0.00;60892.56;4739507;29;20032;-87
2021/12/15 07:41:36;;;;;;;0.30;0.30;;;;;;;-145.06;0.00;60892.56;4714040;29;20040;-87
2021/12/15 07:44:18;;;;;;;1.45;0.20;;;;;;;-145.06;0.00;60892.56;4715087;29;20487;-87
2021/12/15 07:46:57;;;;;;;0.47;0.38;;;;;;;-145.06;0.00;60892.56;4732882;29;20036;-87
2021/12/15 07:49:36;;;;;;;0.20;0.20;;;;;;;187.52;0.00;60892.56;4728319;29;20494;-86
2021/12/15 07:52:16;;;;;;;0.50;0.30;;;;;;;-145.06;0.00;60892.56;4725033;29;20387;-87
2021/12/15 07:54:55;;;;;;;0.40;0.40;;;;;;;10.20;0.00;60892.56;4709770;29;20037;-87
2021/12/15 07:57:34;;;;;;;0.40;0.40;;;;;;;10.22;0.00;60892.56;4727334;29;20028;-87
2021/12/15 08:00:15;;;;;;;0.35;0.28;;;;;;;-145.06;0.00;60892.56;4728599;29;20040;-87
2021/12/15 08:02:55;;;;;;;0.30;0.30;;;;;;;10.23;0.00;60892.56;4720717;29;20032;-87
2021/12/15 08:05:35;;;;;;;0.30;0.30;;;;;;;10.23;0.00;60892.56;4726042;29;20031;-87
2021/12/15 08:08:15;;;;;;;0.25;0.25;;;;;;;10.23;0.00;60892.56;4733877;29;20490;-87
2021/12/15 08:10:56;;;;;;;;;;;;;;;-145.06;0.00;60892.56;4722054;29;20040;-87
2021/12/15 08:13:36;;;;;;;0.28;0.28;;;;;;;10.22;0.00;60892.56;4713240;29;20358;-87
2021/12/15 08:16:19;;;;;;;0.22;0.20;;;;;;;-145.06;0.00;60892.56;4720735;29;20072;-87
2021/12/15 08:18:58;;;;;;;0.52;0.38;;;;;;;-145.06;0.00;60892.56;4712878;29;20040;-87
2021/12/15 08:21:37;;;;;;;0.30;0.30;;;;;;;-145.06;0.00;60892.56;4727865;29;20031;-87
2021/12/15 08:24:18;;;;;;;0.30;0.30;;;;;;;10.24;0.00;60892.56;4737389;29;20032;-87
2021/12/15 08:26:58;;;;;;;0.30;0.30;;;;;;;-145.06;0.00;60892.56;4739692;29;20508;-86
2021/12/15 08:29:37;;;;;;;0.40;0.40;;;;;;;10.27;0.00;60892.56;4725288;29;20036;-86
2021/12/15 08:32:16;;;;;;;0.52;0.40;;;;;;;10.27;0.00;60892.56;4735238;29;20048;-87
2021/12/15 08:34:55;;;;;;;0.40;0.40;;;;;;;10.29;0.00;60892.56;4713951;29;20032;-87
2021/12/15 08:37:35;;;;;;;0.40;0.40;;;;;;;-145.06;0.00;60892.56;4730172;29;20033;-86
2021/12/15 08:40:16;;;;;;;0.40;0.40;;;;;;;-145.06;0.00;60892.56;4727047;29;20284;-87
2021/12/15 08:42:57;;;;;;;0.30;0.30;;;;;;;-145.06;0.00;60892.56;4719550;29;20036;-88
2021/12/15 08:45:39;;;;;;;0.30;0.30;;;;;;;-145.06;0.00;60892.56;4714709;29;20036;-88
2021/12/15 08:48:18;;;;;;;0.30;0.30;;;;;;;10.34;0.00;60892.56;4734407;29;20106;-87
2021/12/15 08:50:58;;;;;;;0.30;0.30;;;;;;;-145.06;0.00;60892.56;4716366;29;20111;-87
2021/12/15 08:53:38;;;;;;;0.30;0.30;;;;;;;-145.06;0.00;60892.56;4721076;29;20036;-87
2021/12/15 08:56:17;;;;;;;0.50;0.40;;;;;;;-145.06;0.00;60892.56;4716947;29;20111;-87
2021/12/15 08:58:56;;;;;;;1.00;0.38;;;;;;;10.40;0.00;60892.56;4727418;29;20036;-88
2021/12/15 09:01:36;;;;;;;0.50;0.50;;;;;;;-145.06;0.00;60892.56;4725670;29;20028;-87
2021/12/15 09:04:15;;;;;;;0.57;0.40;;;;;;;-145.06;0.00;60892.56;4726288;29;20048;-87
2021/12/15 09:06:54;;;;;;;0.67;0.37;;;;;;;10.38;0.00;60892.56;4725773;29;20032;-87
2021/12/15 09:09:34;;;;;;;0.33;0.30;;;;;;;10.39;0.00;60892.56;4720174;29;20028;-87
2021/12/15 09:12:14;;;;;;;;;;;;;;;-145.06;0.00;60892.56;4734928;29;20059;-86
2021/12/15 09:14:53;;;;;;;;;;;;;;;-145.06;0.00;60892.56;4739157;29;20254;-86
2021/12/15 09:17:32;;;;;;;0.75;0.35;;;;;;;-145.06;0.00;60892.56;4747624;29;19911;-86
2021/12/15 09:20:14;;;;;;;0.40;0.40;;;;;;;-145.06;0.00;60892.56;4728845;29;20047;-87
2021/12/15 09:22:55;;;;;;;0.30;0.30;;;;;;;10.41;0.00;60892.56;4727112;29;20032;-87
2021/12/15 09:25:36;;;;;;;0.30;0.30;;;;;;;-145.06;0.00;60892.56;4712459;29;20104;-87
2021/12/15 09:28:19;;;;;;;0.43;0.30;;;;;;;-145.06;0.00;60892.56;4712066;29;20115;-86
2021/12/15 09:30:59;;;;;;;0.63;0.30;;;;;;;-145.06;0.00;60892.56;4730191;29;20036;-86
2021/12/15 09:33:41;;;;;;;0.22;0.20;;;;;;;-145.06;0.00;60892.56;4729533;29;20032;-87
2021/12/15 09:36:21;;;;;;;0.40;0.40;;;;;;;-145.06;0.00;60892.56;4744342;29;20111;-87
2021/12/15 09:39:07;;;;;;;0.82;0.60;;;;;;;-145.06;0.00;60892.56;4723086;29;20036;-87
2021/12/15 09:41:48;;;;;;;0.30;0.30;;;;;;;10.41;0.00;60892.56;4694381;29;20025;-86
2021/12/15 09:44:28;;;;;;;0.60;0.55;;;;;;;-145.06;0.00;60892.56;4700087;29;20055;-86
2021/12/15 10:19:36;;;;;;;0.77;0.68;;;;;;;-145.06;0.00;60892.56;4720450;29;20072;-87
2021/12/15 10:22:17;;;;;;;;;;;;;;;-145.06;0.00;60892.56;4720052;29;20044;-86
2021/12/15 10:25:21;;;;;;;0.80;0.60;;;;;;;-145.06;0.00;60892.56;4728420;29;19915;-86
2021/12/15 10:28:10;;;;;;;1.02;0.93;;;;;;;10.68;0.00;60892.56;4729051;29;20375;-87
2021/12/15 10:30:49;;;;;;;1.00;0.88;;;;;;;-145.06;0.00;60892.56;4725000;29;20036;-87
2021/12/15 10:33:41;;;;;;;1.13;0.80;;;;;;;-145.06;0.00;60892.56;4706892;29;20115;-87
2021/12/15 10:36:24;;;;;;;1.05;0.60;;;;;;;-145.06;0.00;60892.56;4724994;29;20048;-87
2021/12/15 10:39:07;;;;;;;0.73;0.60;;;;;;;-145.06;0.00;60892.56;4724526;29;20068;-87
2021/12/15 10:41:48;;;;;;;0.73;0.60;;;;;;;10.59;0.00;60892.56;4725898;29;20064;-86
2021/12/15 10:44:28;;;;;;;0.98;0.73;;;;;;;-145.06;0.00;60892.56;4711698;29;20609;-86
2021/12/15 10:47:08;;;;;;;1.10;0.70;;;;;;;-145.06;0.00;60892.56;4725357;29;20067;-87
2021/12/15 10:49:51;;;;;;;0.80;0.63;;;;;;;-145.06;0.00;60892.56;4724933;29;20754;-88
2021/12/15 10:52:32;;;;;;;0.55;0.52;;;;;;;-145.06;0.00;60892.56;4714582;29;20044;-87
2021/12/15 10:55:11;;;;;;;0.85;0.80;;;;;;;-145.06;0.00;60892.56;4729227;29;20115;-87
2021/12/15 10:57:50;;;;;;;0.98;0.90;;;;;;;-145.06;0.00;60892.56;4714299;29;20032;-87
2021/12/15 11:00:35;;;;;;;1.33;1.00;;;;;;;10.74;0.00;60892.56;4715233;29;20040;-87
2021/12/15 11:03:17;;;;;;;1.38;1.10;;;;;;;10.71;0.00;60892.56;4715804;29;20036;-87
2021/12/15 11:05:56;;;;;;;1.45;0.85;;;;;;;-145.06;0.00;60892.56;4720008;29;20040;-87
2021/12/15 11:08:36;;;;;;;1.03;0.67;;;;;;;-145.06;0.00;60892.56;4727735;29;20028;-88
2021/12/15 11:11:27;;;;;;;0.77;0.73;;;;;;;-145.06;0.00;60892.56;4732164;29;20736;-86
2021/12/15 11:14:43;;;;;;;0.77;0.75;;;;;;;-145.06;0.00;60892.56;4724856;29;20495;-87
2021/12/15 11:17:44;;;;;;;1.13;0.90;;;;;;;-145.06;0.00;60892.56;4684489;29;20034;-87
2021/12/15 11:20:32;;;;;;;0.93;0.70;;;;;;;10.76;0.00;60892.56;4720149;29;20037;-87
2021/12/15 11:23:24;;;;;;;1.10;1.00;;;;;;;-145.06;0.00;60892.56;4705244;29;20033;-87
2021/12/15 11:26:07;;;;;;;1.45;1.17;;;;;;;-145.06;0.00;60892.56;4724911;29;20028;-87
2021/12/15 11:28:49;;;;;;;1.05;0.95;;;;;;;-145.06;0.00;60892.56;4707532;29;20029;-87
2021/12/15 11:31:31;;;;;;;1.50;1.10;;;;;;;-145.06;0.00;60892.56;4720179;29;20033;-87
2021/12/15 11:34:10;;;;;;;1.50;1.10;;;;;;;11.01;0.00;60892.56;4732140;29;20028;-87
2021/12/15 11:36:50;;;;;;;0.88;0.88;;;;;;;-145.06;0.00;60892.56;4723370;29;20064;-87
2021/12/15 11:39:30;;;;;;;1.48;1.08;;;;;;;-145.06;0.00;60892.56;4719333;29;20048;-88
2021/12/15 11:42:09;;;;;;;1.90;0.90;;;;;;;-145.06;0.00;60892.56;4733289;29;20036;-87
2021/12/15 11:44:47;;;;;;;0.88;0.80;;;;;;;-145.06;0.00;60892.56;4736355;29;20032;-88
2021/12/15 11:47:26;;;;;;;1.70;1.00;;;;;;;-145.06;0.00;60892.56;4724586;29;20024;-88
2021/12/15 11:50:28;;;;;;;1.02;0.82;;;;;;;-145.06;0.00;60892.56;4732026;29;20016;-87
2021/12/15 11:53:41;;;;;;;0.63;0.63;;;;;;;10.93;0.00;60892.56;4734952;29;20016;-88
2021/12/15 11:56:32;;;;;;;1.00;0.85;;;;;;;-145.06;0.00;60892.56;4700632;29;20045;-87
2021/12/15 11:59:26;;;;;;;1.73;1.13;;;;;;;10.91;0.00;60892.56;4722643;29;20044;-87
2021/12/15 12:02:08;;;;;;;1.30;1.10;;;;;;;-145.06;0.00;60892.56;4728655;29;20028;-87
2021/12/15 12:04:55;;;;;;;1.75;1.00;;;;;;;-145.06;0.00;60892.56;4721837;29;20483;-88
2021/12/15 12:07:59;;;;;;;1.38;1.08;;;;;;;-145.06;0.00;60892.56;4737131;29;20059;-87
2021/12/15 12:10:47;;;;;;;1.60;1.10;;;;;;;-145.06;0.00;60892.56;4708277;29;20107;-88
2021/12/15 12:13:30;;;;;;;3.28;2.33;;;;;;;-145.06;0.00;60892.56;4713890;29;20032;-87
2021/12/15 12:16:09;;;;;;;3.80;2.70;;;;;;;-145.06;0.00;60892.56;4729140;29;20044;-88
2021/12/15 12:18:49;;;;;;;3.45;2.35;;;;;;;-145.06;0.00;60892.56;4731693;29;20029;-88
2021/12/15 12:21:28;;;;;;;;;;;;;;;-145.06;0.00;60892.56;4726849;29;20040;-89
2021/12/15 12:24:07;;;;;;;1.90;1.50;;;;;;;-145.06;0.00;60892.56;4713317;29;20259;-88
2021/12/15 12:26:46;;;;;;;1.40;1.30;;;;;;;-145.06;0.00;60892.56;4740216;29;20369;-89
2021/12/15 12:29:26;;;;;;;0.95;0.80;;;;;;;-145.06;0.00;60892.56;4715403;29;20036;-88
2021/12/15 12:32:06;;;;;;;1.10;0.90;;;;;;;10.97;0.00;60892.56;4731667;29;20382;-87
2021/12/15 12:34:45;;;;;;;1.48;1.08;;;;;;;-145.06;0.00;60892.56;4744480;29;20031;-87
2021/12/15 12:37:27;;;;;;;1.48;1.17;;;;;;;-145.06;0.00;60892.56;4713583;29;20483;-88
2021/12/15 12:40:24;;;;;;;3.17;1.80;;;;;;;-145.06;0.00;60892.56;4732081;29;20071;-87
2021/12/15 12:43:20;;;;;;;1.90;1.48;;;;;;;-145.06;0.00;60892.56;4709618;29;20056;-88
2021/12/15 12:46:09;;;;;;;1.10;0.98;;;;;;;-145.06;0.00;60892.56;4720818;29;20036;-89
2021/12/15 13:01:03;;;;;;;1.52;1.30;;;;;;;-145.06;0.00;60892.56;4713241;29;20865;-88
2021/12/15 13:03:48;;;;;;;1.75;1.27;;;;;;;-145.06;0.00;60892.56;4713146;29;20104;-88
2021/12/15 13:06:37;;;;;;;1.70;1.10;;;;;;;-145.06;0.00;60892.56;4713342;29;20036;-88
2021/12/15 13:09:17;;;;;;;1.27;1.00;;;;;;;-145.06;0.00;60892.56;4719360;29;20059;-87
2021/12/15 13:12:18;;;;;;;1.45;1.27;;;;;;;-145.06;0.00;60892.56;4730984;29;20067;-88
2021/12/15 13:14:57;;;;;;;2.28;1.60;;;;;;;-145.06;0.00;60892.56;4712561;29;20036;-88
2021/12/15 13:17:59;;;;;;;1.95;1.40;;;;;;;-145.06;0.00;60892.56;4718516;29;20107;-88
2021/12/15 13:20:39;;;;;;;2.67;1.92;;;;;;;-145.06;0.00;60892.56;4706991;29;20032;-88
2021/12/15 13:23:40;;;;;;;2.08;1.63;;;;;;;-145.06;0.00;60892.56;4719448;29;20032;-88
2021/12/15 13:29:52;;;;;;;2.45;1.73;;;;;;;-145.06;0.00;60892.56;4732953;29;20032;-87
2021/12/15 13:32:37;;;;;;;2.10;1.60;;;;;;;-145.06;0.00;60892.56;4713643;29;20036;-89
2021/12/15 13:35:27;;;;;;;4.68;1.63;;;;;;;-145.06;0.00;60892.56;4717394;29;20036;-89
2021/12/15 13:38:06;;;;;;;1.95;1.70;;;;;;;-145.06;0.00;60892.56;4719342;29;20033;-88
2021/12/15 13:40:54;;;;;;;2.45;1.90;;;;;;;-145.06;0.00;60892.56;4703551;29;20040;-87
2021/12/15 13:43:55;;;;;;;2.45;1.80;;;;;;;-145.06;0.00;60892.56;4714061;29;20483;-87
2021/12/15 13:46:47;;;;;;;2.25;1.80;;;;;;;-145.06;0.00;60892.56;4723273;29;20472;-89
2021/12/15 13:49:41;;;;;;;2.97;1.88;;;;;;;-145.06;0.00;60892.56;4721185;29;20376;-88
2021/12/15 13:52:29;;;;;;;2.78;1.67;;;;;;;-145.06;0.00;60892.56;4711970;29;20025;-89
2021/12/15 13:55:27;;;;;;;2.58;1.92;;;;;;;-145.06;0.00;60892.56;4716862;29;20037;-87
2021/12/15 13:58:10;;;;;;;2.83;1.98;;;;;;;-145.06;0.00;60892.56;4712115;29;20782;-88
2021/12/15 14:01:03;;;;;;;2.90;2.20;;;;;;;-145.06;0.00;60892.56;4710285;29;20068;-88
2021/12/15 14:03:44;;;;;;;2.60;2.03;;;;;;;-145.06;0.00;60892.56;4718249;29;20036;-88
2021/12/15 14:06:24;;;;;;;2.17;1.70;;;;;;;-145.06;0.00;60892.56;4719222;29;20040;-88
2021/12/15 14:09:05;;;;;;;;;;;;;;;-145.06;0.00;60892.56;4717673;29;20032;-88
2021/12/15 14:11:45;;;;;;;2.40;2.13;;;;;;;-145.06;0.00;60892.56;4733249;29;19916;-89
2021/12/15 14:14:24;;;;;;;3.27;2.20;;;;;;;-145.06;0.00;60892.56;4727877;29;20040;-88
2021/12/15 14:17:03;;;;;;;2.90;2.33;;;;;;;-145.06;0.00;60892.56;4726703;29;20285;-89
2021/12/15 14:19:42;;;;;;;2.57;2.23;;;;;;;-145.06;0.00;60892.56;4715595;29;20032;-88
2021/12/15 14:22:21;;;;;;;2.25;1.88;;;;;;;-145.06;0.00;60892.56;4729248;29;20303;-89
2021/12/15 14:25:02;;;;;;;3.40;2.40;;;;;;;10.94;0.00;60892.56;4732825;29;20041;-88